Time;durP1;ratioP1;P1;durP2;ratioP2;P2;SDS_P1;SDS_P2;PMS_P1;PMS_P2;Temp;Humidity;BMP_temperature;BMP_pressure;BME280_temperature;BME280_humidity;BME280_pressure;Samples;Min_cycle;Max_cycle;Signal;HPM_P1;HPM_P2
2022/05/25 00:01:06;;;;;;;4.60;3.30;;;;;;;14.32;65.93;100940.91;105040;1276;73532;-77
2022/05/25 00:03:36;;;;;;;6.60;3.00;;;;;;;14.29;66.00;100941.70;104999;1276;63410;-76
2022/05/25 00:06:09;;;;;;;6.10;3.00;;;;;;;14.27;66.05;100941.88;105109;1276;59245;-74
2022/05/25 00:08:40;;;;;;;;;;;;;;;14.23;66.34;100938.36;105013;1276;71960;-77
2022/05/25 00:11:10;;;;;;;4.90;3.20;;;;;;;14.20;65.53;100938.82;105070;1276;71391;-76
2022/05/25 00:13:39;;;;;;;5.80;3.10;;;;;;;14.16;66.33;100936.49;105077;1274;69737;-76
2022/05/25 00:16:08;;;;;;;6.50;3.10;;;;;;;14.13;66.65;100932.08;105145;1276;72186;-75
2022/05/25 00:19:58;;;;;;;6.90;3.10;;;;;;;14.07;66.68;100933.37;105201;1276;60630;-75
2022/05/25 00:21:26;;;;;;;5.10;3.00;;;;;;;14.00;67.08;100932.80;105228;1276;59049;-75
2022/05/25 00:23:55;;;;;;;5.10;3.20;;;;;;;13.94;67.48;100932.94;105110;1276;73826;-73
2022/05/25 00:26:23;;;;;;;4.30;2.70;;;;;;;13.90;68.06;100935.93;105024;1276;72137;-72
2022/05/25 00:28:52;;;;;;;4.90;3.10;;;;;;;13.84;68.15;100935.14;105064;1276;68704;-74
2022/05/25 00:31:21;;;;;;;6.90;3.60;;;;;;;13.83;68.10;100939.95;105025;1276;72156;-73
2022/05/25 00:33:50;;;;;;;4.90;3.10;;;;;;;13.80;67.94;100941.41;105028;1276;60486;-73
2022/05/25 00:36:19;;;;;;;4.10;3.10;;;;;;;13.77;68.06;100942.73;105036;1275;61826;-75
2022/05/25 00:38:48;;;;;;;7.40;3.20;;;;;;;13.72;68.28;100942.06;104983;1275;74329;-75
2022/05/25 00:41:16;;;;;;;5.70;3.40;;;;;;;13.68;68.48;100946.28;105020;1276;71478;-74
2022/05/25 00:43:45;;;;;;;5.90;3.50;;;;;;;13.63;68.46;100945.48;105323;1276;68903;-73
2022/05/25 00:46:18;;;;;;;7.40;3.60;;;;;;;13.57;68.22;100950.83;105307;1276;74038;-77
2022/05/25 00:48:55;;;;;;;4.90;3.00;;;;;;;13.53;68.90;100951.83;105094;1275;61656;-78
2022/05/25 00:51:48;;;;;;;5.30;3.10;;;;;;;13.50;68.88;100952.98;105127;1278;59906;-74
2022/05/25 00:54:37;;;;;;;6.60;3.60;;;;;;;13.47;68.98;100951.67;105091;1276;72252;-77
2022/05/25 00:57:18;;;;;;;5.70;3.20;;;;;;;13.42;69.14;100953.23;105026;1276;70888;-75
2022/05/25 01:00:10;;;;;;;6.40;3.00;;;;;;;13.39;69.20;100956.12;105000;1276;68538;-75
2022/05/25 01:02:46;;;;;;;5.20;3.00;;;;;;;13.36;69.50;100957.83;104994;1276;73606;-74
2022/05/25 01:05:25;;;;;;;5.50;3.30;;;;;;;13.31;69.27;100960.44;104941;1276;62695;-74
2022/05/25 01:08:49;;;;;;;4.50;3.30;;;;;;;13.26;69.00;100959.80;104845;1276;59515;-74
2022/05/25 01:11:26;;;;;;;4.20;3.10;;;;;;;13.17;70.05;100960.28;105318;1276;71174;-73
2022/05/25 01:14:16;;;;;;;6.30;3.60;;;;;;;13.12;70.20;100957.71;105275;1276;70509;-74
2022/05/25 01:17:20;;;;;;;5.90;3.20;;;;;;;13.06;70.45;100961.70;105415;1276;70714;-73
2022/05/25 01:20:10;;;;;;;4.60;3.40;;;;;;;12.98;70.47;100965.84;105403;1276;71513;-74
2022/05/25 01:23:52;;;;;;;6.50;3.70;;;;;;;12.91;71.19;100963.07;105363;1276;61744;-73
2022/05/25 01:27:08;;;;;;;5.20;3.40;;;;;;;12.84;71.48;100966.60;105104;1276;61527;-79
2022/05/25 01:29:55;;;;;;;7.00;3.30;;;;;;;12.78;71.64;100960.39;105053;1276;74389;-77
2022/05/25 01:32:31;;;;;;;5.60;3.60;;;;;;;12.73;71.95;100957.11;105077;1276;71058;-75
2022/05/25 01:35:40;;;;;;;9.60;3.60;;;;;;;12.67;72.23;100957.58;105046;1276;68303;-73
2022/05/25 01:38:19;;;;;;;4.70;3.30;;;;;;;12.57;72.55;100956.83;104977;1276;74184;-72
2022/05/25 01:41:44;;;;;;;4.50;3.00;;;;;;;12.52;72.74;100957.49;105105;1276;63475;-73
2022/05/25 01:44:22;;;;;;;3.80;3.10;;;;;;;12.46;72.71;100955.34;105064;1276;59301;-75
2022/05/25 01:47:01;;;;;;;4.90;3.50;;;;;;;12.40;72.11;100953.17;104950;1279;72349;-74
2022/05/25 01:49:57;;;;;;;8.00;3.50;;;;;;;12.34;72.63;100954.85;104918;1276;68791;-74
2022/05/25 01:52:46;;;;;;;6.10;3.60;;;;;;;12.29;72.82;100952.83;104818;1276;70771;-72
2022/05/25 01:55:24;;;;;;;5.30;3.10;;;;;;;12.25;73.50;100962.01;104968;1276;73084;-73
2022/05/25 01:58:01;;;;;;;6.80;3.90;;;;;;;12.21;73.31;100968.13;105038;1276;61920;-73
2022/05/25 02:00:39;;;;;;;6.30;3.20;;;;;;;12.12;73.33;100966.44;105119;1276;59699;-74
2022/05/25 02:06:30;;;;;;;6.60;3.40;;;;;;;12.02;74.14;100967.64;104901;1276;71969;-74
2022/05/25 02:09:46;;;;;;;5.70;3.70;;;;;;;11.98;74.45;100962.63;104949;1276;70457;-75
2022/05/25 02:13:05;;;;;;;8.10;4.30;;;;;;;11.94;74.31;100963.83;104961;1276;74013;-70
2022/05/25 02:15:34;;;;;;;8.80;3.80;;;;;;;11.88;74.13;100963.23;104956;1276;61562;-73
2022/05/25 02:18:16;;;;;;;5.80;3.90;;;;;;;11.84;73.93;100962.60;104880;1276;59054;-71
2022/05/25 02:21:27;;;;;;;9.30;4.40;;;;;;;11.83;74.40;100967.95;104936;1276;71035;-74
2022/05/25 02:24:32;;;;;;;13.10;8.00;;;;;;;11.81;74.49;100968.09;104878;1276;71520;-72
2022/05/25 02:27:12;;;;;;;7.80;3.50;;;;;;;11.79;73.99;100965.07;104842;1276;69415;-72
2022/05/25 02:29:49;;;;;;;8.20;3.60;;;;;;;11.77;73.69;100969.03;104889;1276;73374;-73
2022/05/25 02:32:38;;;;;;;8.30;4.00;;;;;;;11.75;74.89;100974.94;104897;1276;61726;-74
2022/05/25 02:35:09;;;;;;;6.10;3.40;;;;;;;11.74;74.27;100978.68;105009;1276;60453;-74
2022/05/25 02:37:38;;;;;;;5.70;3.60;;;;;;;11.74;74.12;100981.14;104971;1276;72199;-73
2022/05/25 02:40:09;;;;;;;6.10;3.60;;;;;;;11.73;74.36;100993.80;104861;1276;69761;-75
2022/05/25 02:42:40;;;;;;;7.40;4.00;;;;;;;11.71;74.85;101002.42;105062;1276;68873;-75
2022/05/25 02:45:11;;;;;;;5.40;3.70;;;;;;;11.70;74.58;101008.51;104886;1274;72190;-76
2022/05/25 02:47:40;;;;;;;5.60;3.60;;;;;;;11.70;75.70;101016.33;104885;1276;61240;-75
2022/05/25 02:50:09;;;;;;;6.70;3.90;;;;;;;11.73;76.02;101010.17;104856;1276;58834;-74
2022/05/25 02:52:38;;;;;;;5.40;3.50;;;;;;;11.74;75.94;101013.95;104836;1276;71136;-76
2022/05/25 02:55:07;;;;;;;6.70;3.70;;;;;;;11.75;75.77;101008.80;104778;1276;71704;-76
2022/05/25 02:57:36;;;;;;;9.10;4.00;;;;;;;11.77;75.72;101007.98;104884;1276;68503;-75
2022/05/25 03:00:07;;;;;;;8.30;3.80;;;;;;;11.80;75.75;101005.46;105220;1276;73479;-74
2022/05/25 03:02:37;;;;;;;6.60;4.00;;;;;;;11.82;75.83;101002.42;105224;1276;61222;-76
2022/05/25 03:05:08;;;;;;;7.00;4.10;;;;;;;11.86;75.82;101005.42;104976;1276;59528;-75
2022/05/25 03:07:37;;;;;;;7.70;4.20;;;;;;;11.92;75.59;101008.98;104949;1276;73584;-75
2022/05/25 03:10:07;;;;;;;7.40;4.70;;;;;;;12.00;75.33;101012.63;104998;1275;72795;-75
2022/05/25 03:12:36;;;;;;;8.80;5.30;;;;;;;12.07;74.98;101015.77;104859;1276;69384;-77
2022/05/25 03:15:05;;;;;;;9.10;4.40;;;;;;;12.11;75.10;101018.19;104842;1276;73398;-79
2022/05/25 03:17:34;;;;;;;9.40;4.30;;;;;;;12.18;75.25;101019.61;104933;1276;63793;-75
2022/05/25 03:20:03;;;;;;;9.40;4.40;;;;;;;12.28;75.45;101022.42;104916;1276;61142;-75
2022/05/25 03:22:34;;;;;;;8.10;4.20;;;;;;;12.31;75.25;101016.60;105153;1276;72783;-78
2022/05/25 03:25:05;;;;;;;8.10;5.00;;;;;;;12.36;75.05;101022.81;105364;1275;71708;-78
2022/05/25 03:27:34;;;;;;;9.60;5.50;;;;;;;12.40;74.90;101024.11;104994;1277;68502;-75
2022/05/25 03:30:06;;;;;;;12.00;7.40;;;;;;;12.44;75.40;101022.54;105065;1276;74193;-76
2022/05/25 03:32:35;;;;;;;10.40;5.00;;;;;;;12.52;75.59;101027.24;105106;1276;62740;-76
2022/05/25 03:35:04;;;;;;;9.70;4.70;;;;;;;12.60;75.11;101026.08;104910;1276;61389;-76
2022/05/25 03:37:33;;;;;;;8.70;4.60;;;;;;;12.68;74.83;101026.34;105111;1275;72331;-75
2022/05/25 03:40:05;;;;;;;8.30;4.50;;;;;;;12.79;74.71;101023.27;104910;1276;72633;-73
2022/05/25 03:42:34;;;;;;;10.70;4.90;;;;;;;12.90;74.51;101023.30;105276;1276;70733;-77
2022/05/25 03:45:04;;;;;;;15.40;5.40;;;;;;;13.00;73.97;101021.59;105023;1276;72101;-75
2022/05/25 03:47:33;;;;;;;15.10;5.00;;;;;;;13.10;73.87;101022.95;104955;1276;61657;-75
2022/05/25 03:50:03;;;;;;;7.50;4.00;;;;;;;13.18;73.60;101020.78;105052;1276;60414;-74
2022/05/25 03:52:35;;;;;;;9.50;4.50;;;;;;;13.25;73.46;101020.57;104934;1276;75153;-74
2022/05/25 03:55:06;;;;;;;9.20;4.40;;;;;;;13.33;73.39;101024.50;104940;1276;70277;-74
2022/05/25 03:57:35;;;;;;;8.60;4.40;;;;;;;13.41;73.07;101030.50;104991;1276;70133;-74
2022/05/25 04:00:09;;;;;;;7.30;4.20;;;;;;;13.50;72.83;101030.48;105082;1276;74666;-75
2022/05/25 04:02:37;;;;;;;8.30;4.30;;;;;;;13.58;72.02;101029.30;105259;1276;60349;-73
2022/05/25 04:05:08;;;;;;;10.30;4.20;;;;;;;13.65;71.77;101034.67;104918;1276;60112;-75
2022/05/25 04:07:45;;;;;;;8.00;3.70;;;;;;;13.74;71.40;101036.04;105957;1276;74589;-78
2022/05/25 04:10:20;;;;;;;8.10;4.60;;;;;;;13.85;71.17;101038.00;106167;1276;72514;-77
2022/05/25 04:12:49;;;;;;;8.70;4.10;;;;;;;13.95;70.96;101036.65;106441;1275;71163;-79
2022/05/25 04:15:24;;;;;;;5.40;3.80;;;;;;;14.05;70.30;101034.27;106506;1274;72923;-78
2022/05/25 04:17:54;;;;;;;6.20;4.00;;;;;;;14.15;69.49;101034.51;106221;1275;59442;-78
2022/05/25 04:20:25;;;;;;;8.60;4.10;;;;;;;14.27;68.79;101039.10;105844;1276;60995;-77
2022/05/25 04:22:55;;;;;;;7.10;4.30;;;;;;;14.38;68.72;101040.52;105831;1276;71554;-75
2022/05/25 04:25:25;;;;;;;7.80;4.10;;;;;;;14.46;68.28;101039.63;106055;1276;71741;-77
2022/05/25 04:27:57;;;;;;;9.90;4.20;;;;;;;14.54;67.80;101043.70;106193;1275;69003;-78
2022/05/25 04:30:29;;;;;;;4.30;3.50;;;;;;;14.60;67.76;101047.31;105926;1276;74171;-78
2022/05/25 04:32:59;;;;;;;7.70;4.60;;;;;;;14.64;67.59;101049.88;105887;1276;64147;-78
2022/05/25 04:35:28;;;;;;;8.30;4.30;;;;;;;14.73;67.14;101048.45;106061;1275;61235;-78
2022/05/25 04:38:08;;;;;;;5.80;3.50;;;;;;;14.79;67.04;101041.23;105772;1276;73699;-78
2022/05/25 04:40:41;;;;;;;8.50;3.70;;;;;;;14.89;66.59;101044.31;105894;1276;69996;-79
2022/05/25 04:43:17;;;;;;;6.30;3.60;;;;;;;14.98;66.31;101042.98;106215;1276;68048;-77
2022/05/25 04:45:49;;;;;;;8.10;4.10;;;;;;;15.09;65.86;101048.56;106338;1275;72127;-80
2022/05/25 04:48:21;;;;;;;10.90;4.20;;;;;;;15.21;65.33;101047.65;106162;1273;58935;-78
2022/05/25 04:50:52;;;;;;;6.80;4.40;;;;;;;15.30;64.83;101046.73;106144;1273;60687;-78
2022/05/25 04:53:22;;;;;;;6.80;4.00;;;;;;;15.36;64.46;101049.34;105967;1275;73116;-80
2022/05/25 04:58:47;;;;;;;11.30;4.20;;;;;;;15.54;64.17;101048.14;105842;1276;70917;-79
2022/05/25 05:01:19;;;;;;;6.00;3.90;;;;;;;15.61;63.15;101051.37;105915;1276;74253;-78
2022/05/25 05:03:49;;;;;;;9.00;4.30;;;;;;;15.66;62.83;101050.25;105772;1275;61283;-78
2022/05/25 05:06:18;;;;;;;7.60;4.30;;;;;;;15.71;62.68;101053.38;105636;1276;60222;-77
2022/05/25 05:08:47;;;;;;;8.30;4.00;;;;;;;15.76;62.61;101056.44;105542;1276;71843;-78
2022/05/25 05:11:19;;;;;;;7.40;4.00;;;;;;;15.82;62.64;101059.38;105836;1273;72787;-78
2022/05/25 05:13:47;;;;;;;9.90;4.10;;;;;;;15.91;61.94;101061.52;106080;1276;70253;-80
2022/05/25 05:16:17;;;;;;;7.20;4.20;;;;;;;15.99;61.70;101064.17;106179;1276;72147;-78
2022/05/25 05:18:47;;;;;;;9.60;4.60;;;;;;;16.09;61.63;101061.64;106253;1275;60525;-80
2022/05/25 05:21:25;;;;;;;10.50;4.60;;;;;;;16.25;61.01;101059.58;106394;1275;60680;-81
2022/05/25 05:23:53;;;;;;;7.40;3.50;;;;;;;16.35;60.58;101053.52;106295;1276;72335;-79
2022/05/25 05:26:22;;;;;;;7.30;3.90;;;;;;;16.45;60.21;101057.05;106370;1274;70501;-76
2022/05/25 05:28:53;;;;;;;13.50;4.40;;;;;;;16.55;59.64;101064.73;106004;1274;69901;-78
2022/05/25 05:31:22;;;;;;;10.70;3.70;;;;;;;16.63;59.47;101067.48;106327;1276;72908;-77
2022/05/25 05:33:50;;;;;;;12.40;4.00;;;;;;;16.71;59.14;101064.13;106450;1275;60681;-77
2022/05/25 05:36:34;;;;;;;9.60;3.60;;;;;;;16.79;58.98;101063.20;106576;1276;58794;-80
2022/05/25 05:39:10;;;;;;;6.80;4.30;;;;;;;16.87;58.68;101062.30;106743;1276;72616;-80
2022/05/25 05:41:59;;;;;;;10.40;4.10;;;;;;;17.01;58.42;101060.42;106932;1273;73477;-78
2022/05/25 05:44:34;;;;;;;8.50;3.70;;;;;;;17.08;57.94;101056.75;106977;1274;69062;-79
2022/05/25 06:45:40;;;;;;;7.00;2.60;;;;;;;19.98;47.16;101053.33;105371;1286;604092;-88
2022/05/25 06:48:23;;;;;;;4.60;1.90;;;;;;;20.34;45.87;101066.50;107630;1263;320857;-89
2022/05/25 06:50:52;;;;;;;8.50;3.10;;;;;;;20.41;44.57;101059.81;106847;1258;57982;-84
2022/05/25 06:53:20;;;;;;;25.60;3.40;;;;;;;20.48;44.74;101061.44;107059;1254;72025;-89
2022/05/25 06:55:49;;;;;;;10.60;3.50;;;;;;;20.62;43.95;101056.23;107304;1254;61509;-85
2022/05/25 06:58:18;;;;;;;11.60;2.80;;;;;;;20.68;43.57;101057.73;107160;1254;59218;-87
2022/05/25 07:00:47;;;;;;;6.40;2.30;;;;;;;20.71;43.93;101054.35;107099;1253;73949;-87
2022/05/25 07:03:16;;;;;;;9.80;2.60;;;;;;;20.79;43.53;101053.34;107020;1256;60886;-85
2022/05/25 07:05:44;;;;;;;8.20;2.30;;;;;;;20.95;42.94;101051.41;107116;1253;61579;-85
2022/05/25 07:08:14;;;;;;;8.70;2.70;;;;;;;21.02;42.88;101049.00;107036;1257;61239;-86
2022/05/25 07:10:45;;;;;;;14.90;2.60;;;;;;;21.01;42.57;101045.06;107145;1253;71572;-90
2022/05/25 07:13:17;;;;;;;9.70;2.70;;;;;;;21.18;42.49;101048.02;107179;1253;69663;-87
2022/05/25 07:15:45;;;;;;;5.20;2.60;;;;;;;21.29;42.38;101046.89;107008;1256;74514;-88
2022/05/25 07:18:14;;;;;;;4.80;2.70;;;;;;;21.45;42.26;101050.02;106955;1254;61678;-86
2022/05/25 07:20:45;;;;;;;4.40;2.30;;;;;;;21.43;42.29;101042.95;107286;1253;59504;-88
2022/05/25 07:23:13;;;;;;;4.10;2.30;;;;;;;21.53;42.08;101042.24;107168;1256;61303;-92
2022/05/25 07:25:42;;;;;;;5.40;2.10;;;;;;;21.68;41.79;101044.14;106913;1256;60958;-86
2022/05/25 07:28:11;;;;;;;4.50;2.40;;;;;;;21.72;41.32;101045.50;107181;1256;59929;-87
2022/05/25 07:30:39;;;;;;;4.90;2.20;;;;;;;21.63;40.92;101044.46;107370;1256;73123;-88
2022/05/25 07:33:09;;;;;;;3.90;2.30;;;;;;;21.85;40.87;101044.55;107580;1253;59899;-86
2022/05/25 07:35:38;;;;;;;11.50;2.60;;;;;;;21.99;40.96;101038.99;107457;1253;59184;-88
2022/05/25 07:38:08;;;;;;;5.40;2.40;;;;;;;22.21;40.49;101040.03;107215;1252;61395;-85
2022/05/25 07:40:41;;;;;;;6.50;2.40;;;;;;;22.36;40.30;101041.58;107305;1253;71561;-88
2022/05/25 07:43:18;;;;;;;7.10;2.40;;;;;;;22.40;40.53;101037.50;107032;1253;70392;-85
2022/05/25 07:45:49;;;;;;;6.40;2.60;;;;;;;22.33;39.01;101033.91;107625;1250;63608;-87
2022/05/25 07:48:18;;;;;;;4.70;2.20;;;;;;;22.37;38.84;101037.27;107199;1254;59534;-88
2022/05/25 07:50:47;;;;;;;8.80;2.10;;;;;;;22.51;38.78;101040.79;107191;1254;60938;-90
2022/05/25 07:56:05;;;;;;;5.90;2.20;;;;;;;22.41;38.97;101033.77;107098;1253;71569;-89
2022/05/25 07:58:35;;;;;;;5.90;2.10;;;;;;;22.76;38.43;101032.67;107310;1253;71010;-85
2022/05/25 08:01:15;;;;;;;5.30;2.00;;;;;;;22.90;37.75;101033.34;107680;1253;74273;-85
2022/05/25 08:06:40;;;;;;;4.70;1.80;;;;;;;22.80;37.58;101032.88;107143;1252;61218;-87
2022/05/25 08:09:09;;;;;;;9.40;2.30;;;;;;;22.98;37.21;101032.25;107040;1253;74703;-86
2022/05/25 08:11:37;;;;;;;7.70;2.10;;;;;;;22.98;37.28;101026.92;107244;1251;62046;-86
2022/05/25 08:14:06;;;;;;;6.60;2.30;;;;;;;23.15;37.00;101026.29;107147;1253;60012;-86
2022/05/25 08:16:35;;;;;;;6.70;2.30;;;;;;;23.33;37.22;101021.73;107189;1253;71631;-87
2022/05/25 08:19:19;;;;;;;7.30;2.50;;;;;;;23.47;37.13;101026.63;107161;1253;59098;-89
2022/05/25 08:21:48;;;;;;;12.30;2.20;;;;;;;23.42;36.94;101026.13;107187;1253;59028;-86
2022/05/25 08:24:18;;;;;;;4.30;2.10;;;;;;;23.21;37.32;101020.84;107222;1253;61383;-86
2022/05/25 08:26:47;;;;;;;8.10;2.30;;;;;;;23.00;37.31;101018.61;107142;1253;61631;-84
2022/05/25 08:29:16;;;;;;;5.90;2.40;;;;;;;23.11;37.23;101022.44;107242;1251;69961;-87
2022/05/25 08:31:45;;;;;;;6.50;2.30;;;;;;;23.48;37.10;101018.36;107193;1251;74499;-87
2022/05/25 08:34:13;;;;;;;4.10;2.10;;;;;;;23.59;35.46;101013.55;107435;1253;59059;-86
2022/05/25 08:36:42;;;;;;;5.00;2.10;;;;;;;23.55;35.23;101019.94;107423;1253;57393;-86
2022/05/25 08:39:11;;;;;;;6.90;2.50;;;;;;;23.90;35.38;101023.48;107347;1251;72155;-85
2022/05/25 08:41:40;;;;;;;6.30;2.30;;;;;;;24.02;35.16;101024.75;107279;1253;71929;-86
2022/05/25 08:44:11;;;;;;;11.00;2.30;;;;;;;23.78;35.04;101029.28;107425;1253;60685;-87
2022/05/25 08:46:41;;;;;;;5.20;1.90;;;;;;;23.69;35.23;101028.64;107271;1253;73950;-88
2022/05/25 08:49:17;;;;;;;6.00;1.90;;;;;;;23.59;35.50;101024.95;107255;1253;58604;-86
2022/05/25 08:51:51;;;;;;;8.20;2.70;;;;;;;23.89;34.89;101026.52;107334;1253;57906;-86
2022/05/25 08:54:20;;;;;;;9.10;2.30;;;;;;;24.00;34.57;101022.22;107160;1253;72162;-87
2022/05/25 08:57:33;;;;;;;7.10;2.00;;;;;;;24.06;34.35;101021.45;107170;1253;62076;-88
2022/05/25 09:00:07;;;;;;;8.90;2.20;;;;;;;24.41;34.40;101024.80;107131;1251;70605;-85
2022/05/25 09:03:20;;;;;;;10.80;2.20;;;;;;;24.37;34.40;101017.38;107288;1251;73531;-86
2022/05/25 09:06:47;;;;;;;5.30;1.80;;;;;;;24.26;34.31;101021.91;107379;1253;61869;-84
2022/05/25 09:09:37;;;;;;;5.50;2.30;;;;;;;23.73;35.14;101012.14;106544;1260;60756;-89
2022/05/25 09:12:30;;;;;;;5.10;1.80;;;;;;;24.02;35.01;101013.29;107370;1250;73427;-88
2022/05/25 09:15:05;;;;;;;5.40;2.00;;;;;;;24.09;34.80;101013.63;107383;1251;61575;-84
2022/05/25 09:18:10;;;;;;;6.10;2.00;;;;;;;24.32;34.65;101010.52;107263;1253;59262;-86
2022/05/25 09:20:46;;;;;;;4.40;2.20;;;;;;;24.37;34.96;100999.40;107655;1253;73841;-87
2022/05/25 09:23:15;;;;;;;5.00;2.00;;;;;;;24.66;34.47;100998.52;107577;1251;61121;-88
2022/05/25 09:25:46;;;;;;;9.30;2.40;;;;;;;24.86;34.33;100992.44;107326;1253;61175;-85
2022/05/25 09:28:20;;;;;;;6.00;2.40;;;;;;;25.06;34.04;100989.46;107284;1253;63045;-85
2022/05/25 09:30:56;;;;;;;4.30;2.10;;;;;;;25.09;33.54;100991.04;107221;1253;71450;-83
2022/05/25 09:33:40;;;;;;;3.70;2.10;;;;;;;25.30;32.99;100989.36;107326;1253;70975;-90
2022/05/25 09:36:16;;;;;;;7.10;2.30;;;;;;;24.88;32.75;100982.54;107134;1251;64645;-87
2022/05/25 09:38:59;;;;;;;7.40;2.10;;;;;;;24.85;33.01;100984.38;107303;1253;60977;-86
2022/05/25 09:41:31;;;;;;;4.40;1.90;;;;;;;24.75;32.74;100978.77;107374;1251;58902;-90
2022/05/25 09:44:03;;;;;;;8.10;2.20;;;;;;;24.87;32.37;100974.43;107408;1251;73361;-85
2022/05/25 09:46:52;;;;;;;4.70;1.90;;;;;;;24.75;32.70;100980.30;107496;1253;61219;-87
2022/05/25 09:49:47;;;;;;;3.80;2.10;;;;;;;25.06;32.69;100974.58;107392;1251;70565;-84
2022/05/25 09:52:43;;;;;;;7.50;2.20;;;;;;;25.10;32.20;100974.21;107428;1251;63559;-84
2022/05/25 09:55:28;;;;;;;3.80;2.20;;;;;;;24.88;32.51;100975.05;107605;1251;61406;-84
2022/05/25 09:58:09;;;;;;;7.00;2.40;;;;;;;25.53;32.13;100971.10;107480;1253;59107;-89
2022/05/25 10:01:02;;;;;;;12.20;2.90;;;;;;;25.32;31.77;100970.65;108596;1251;72282;-87
2022/05/25 10:03:41;;;;;;;7.70;2.10;;;;;;;25.62;31.42;100966.20;107648;1253;61590;-85
2022/05/25 10:06:23;;;;;;;7.10;1.90;;;;;;;25.90;31.16;100972.25;107332;1253;60002;-85
2022/05/25 10:09:21;;;;;;;5.60;1.90;;;;;;;26.24;30.99;100969.29;107333;1253;62550;-85
2022/05/25 10:11:51;;;;;;;5.00;1.90;;;;;;;26.41;30.38;100971.48;107275;1252;60466;-88
2022/05/25 10:14:28;;;;;;;7.50;2.50;;;;;;;26.54;29.89;100971.12;107238;1253;57431;-87
2022/05/25 10:17:40;;;;;;;5.10;2.50;;;;;;;26.85;29.54;100969.96;107366;1251;72610;-91
2022/05/25 10:20:34;;;;;;;4.50;2.00;;;;;;;26.83;29.93;100957.44;107201;1253;72644;-86
2022/05/25 10:23:26;;;;;;;4.50;1.80;;;;;;;27.00;29.56;100957.48;107569;1252;71442;-88
2022/05/25 10:26:17;;;;;;;5.20;2.20;;;;;;;26.20;30.62;100946.94;107439;1253;73454;-88
2022/05/25 10:29:09;;;;;;;5.80;2.10;;;;;;;26.48;30.15;100953.29;107389;1253;61680;-89
2022/05/25 10:37:39;;;;;;;6.30;2.40;;;;;;;27.14;28.50;100945.98;107435;1253;63248;-86
2022/05/25 10:40:10;;;;;;;11.20;2.10;;;;;;;27.51;28.62;100944.48;107241;1254;59865;-88
2022/05/25 10:42:44;;;;;;;11.30;2.20;;;;;;;27.69;27.87;100941.23;106981;1256;63299;-84
2022/05/25 10:45:24;;;;;;;6.20;1.80;;;;;;;27.98;26.82;100941.40;107241;1253;59056;-76
2022/05/25 10:48:18;;;;;;;4.70;1.50;;;;;;;28.18;26.43;100948.09;107358;1253;60393;-79
2022/05/25 10:51:18;;;;;;;3.70;1.40;;;;;;;27.75;26.76;100944.25;107211;1253;62619;-79
2022/05/25 10:57:03;;;;;;;6.30;1.90;;;;;;;26.95;27.64;100938.05;107184;1253;71391;-80
2022/05/25 10:59:53;;;;;;;3.60;2.20;;;;;;;27.91;26.69;100935.89;107347;1253;74349;-79
2022/05/25 11:02:49;;;;;;;5.80;2.30;;;;;;;28.08;26.88;100938.41;107410;1253;57948;-77
2022/05/25 11:05:38;;;;;;;8.50;2.10;;;;;;;28.40;26.21;100937.18;107837;1254;58348;-80
2022/05/25 11:08:32;;;;;;;7.80;2.30;;;;;;;28.32;26.30;100935.13;107537;1253;62105;-81
2022/05/25 11:11:33;;;;;;;5.70;1.50;;;;;;;26.89;27.73;100933.52;107238;1253;72170;-76
2022/05/25 11:14:36;;;;;;;8.50;1.90;;;;;;;27.10;27.62;100929.73;107236;1253;59879;-78
2022/05/25 11:17:20;;;;;;;3.90;1.60;;;;;;;27.18;27.70;100924.70;107272;1253;74052;-88
2022/05/25 11:20:10;;;;;;;5.00;2.00;;;;;;;26.92;28.19;100918.32;107346;1253;61186;-80
2022/05/25 11:23:15;;;;;;;7.20;1.70;;;;;;;27.54;27.38;100910.02;107290;1253;60794;-84
2022/05/25 11:26:41;;;;;;;9.10;2.30;;;;;;;27.95;26.92;100907.92;107257;1253;62966;-86
2022/05/25 11:29:26;;;;;;;5.60;1.90;;;;;;;28.53;26.66;100900.48;107057;1254;71516;-82
2022/05/25 11:32:42;;;;;;;5.90;2.10;;;;;;;29.19;25.79;100894.55;107222;1254;70773;-79
2022/05/25 11:35:29;;;;;;;6.60;2.30;;;;;;;28.84;25.75;100896.85;107267;1253;63637;-85
2022/05/25 11:38:24;;;;;;;8.10;1.80;;;;;;;29.26;25.39;100895.18;107160;1253;59090;-79
2022/05/25 11:41:22;;;;;;;4.80;2.00;;;;;;;29.31;25.22;100888.19;107318;1253;59146;-77
2022/05/25 11:44:09;;;;;;;6.20;1.80;;;;;;;29.01;25.70;100879.88;107363;1254;72759;-83
2022/05/25 11:47:01;;;;;;;6.60;1.70;;;;;;;28.43;26.24;100870.42;107365;1253;70382;-79
2022/05/25 11:49:54;;;;;;;3.00;1.80;;;;;;;29.04;25.50;100876.70;107261;1253;59232;-78
2022/05/25 11:53:18;;;;;;;3.90;2.00;;;;;;;29.68;25.02;100867.74;107267;1253;74029;-76
2022/05/25 11:56:00;;;;;;;5.50;2.10;;;;;;;30.32;24.84;100872.89;107255;1253;59105;-80
2022/05/25 11:59:05;;;;;;;4.30;1.80;;;;;;;29.57;25.07;100862.52;107051;1254;60196;-81
2022/05/25 12:02:20;;;;;;;5.30;2.00;;;;;;;29.38;25.50;100856.60;107237;1253;71758;-82
2022/05/25 12:05:20;;;;;;;7.50;1.90;;;;;;;29.15;25.60;100844.00;107143;1253;72676;-81
2022/05/25 12:08:46;;;;;;;5.80;2.00;;;;;;;29.07;25.86;100844.61;107138;1253;71312;-81
2022/05/25 12:11:42;;;;;;;6.10;1.80;;;;;;;29.78;24.93;100838.85;107222;1254;62860;-83
2022/05/25 12:15:14;;;;;;;8.60;2.10;;;;;;;30.07;24.43;100837.56;107274;1253;60536;-78
2022/05/25 12:18:24;;;;;;;5.10;1.50;;;;;;;30.03;24.19;100838.21;106843;1258;59035;-81
2022/05/25 12:21:02;;;;;;;4.50;1.60;;;;;;;31.04;22.81;100839.14;107165;1254;73577;-77
2022/05/25 12:23:36;;;;;;;6.30;1.80;;;;;;;31.13;22.81;100840.08;107275;1253;71804;-82
2022/05/25 12:26:31;;;;;;;6.40;1.80;;;;;;;30.85;23.52;100833.46;107226;1254;70127;-85
2022/05/25 12:29:25;;;;;;;3.90;1.60;;;;;;;31.06;23.48;100832.66;107142;1254;63781;-84
2022/05/25 12:31:56;;;;;;;6.30;1.80;;;;;;;31.09;23.20;100829.19;107293;1251;59016;-79
2022/05/25 12:34:46;;;;;;;3.20;1.70;;;;;;;30.13;24.31;100820.48;107206;1254;57571;-86
2022/05/25 12:37:26;;;;;;;7.60;1.80;;;;;;;30.42;24.30;100824.04;107247;1253;73471;-79
2022/05/25 12:40:12;;;;;;;5.40;2.00;;;;;;;30.16;24.52;100824.30;107156;1254;61534;-78
2022/05/25 12:42:45;;;;;;;5.60;1.90;;;;;;;30.89;24.01;100820.83;107153;1254;69786;-77
2022/05/25 12:48:31;;;;;;;6.10;1.80;;;;;;;30.16;24.69;100814.39;107091;1254;58651;-77
2022/05/25 12:51:27;;;;;;;6.00;1.90;;;;;;;30.23;24.47;100811.66;107131;1254;59005;-78
2022/05/25 12:54:05;;;;;;;6.30;1.70;;;;;;;29.83;24.94;100801.42;107219;1254;64377;-79
2022/05/25 12:56:38;;;;;;;4.40;1.90;;;;;;;30.44;24.33;100810.52;107076;1254;71535;-79
2022/05/25 12:59:11;;;;;;;8.60;1.90;;;;;;;30.65;24.07;100805.89;107291;1253;70917;-81
2022/05/25 13:02:02;;;;;;;4.50;1.80;;;;;;;31.47;23.33;100805.63;107349;1253;63626;-74
2022/05/25 13:04:47;;;;;;;5.40;1.90;;;;;;;31.32;23.18;100802.36;107129;1254;58971;-78
2022/05/25 13:07:36;;;;;;;2.30;1.40;;;;;;;32.12;22.57;100795.23;107337;1253;60339;-78
2022/05/25 13:10:40;;;;;;;3.90;1.80;;;;;;;31.58;22.70;100792.48;107328;1252;63408;-71
2022/05/25 13:13:37;;;;;;;7.50;2.10;;;;;;;30.56;23.95;100791.20;107519;1253;71390;-74
2022/05/25 13:16:08;;;;;;;2.30;1.30;;;;;;;32.22;22.21;100786.16;107231;1254;70199;-78
2022/05/25 13:18:54;;;;;;;4.70;1.80;;;;;;;31.84;22.59;100785.08;107125;1254;74434;-72
2022/05/25 13:21:40;;;;;;;4.70;1.70;;;;;;;32.05;22.18;100779.05;107286;1254;61889;-74
2022/05/25 13:24:41;;;;;;;6.10;2.00;;;;;;;31.16;23.47;100777.10;107133;1254;58785;-82
2022/05/25 13:27:16;;;;;;;5.40;1.70;;;;;;;30.96;23.71;100782.28;107286;1253;63058;-77
2022/05/25 13:30:07;;;;;;;12.60;2.20;;;;;;;30.70;23.84;100779.91;107289;1252;61553;-76
2022/05/25 13:32:51;;;;;;;3.80;1.70;;;;;;;30.74;23.96;100776.81;107263;1253;68365;-79
2022/05/25 13:35:26;;;;;;;13.30;2.20;;;;;;;30.54;24.33;100775.76;107246;1253;73468;-79
2022/05/25 13:38:14;;;;;;;4.50;1.90;;;;;;;29.65;25.45;100772.16;107264;1252;61062;-81